Time;durP1;ratioP1;P1;durP2;ratioP2;P2;SDS_P1;SDS_P2;PMS_P1;PMS_P2;Temp;Humidity;BMP_temperature;BMP_pressure;BME280_temperature;BME280_humidity;BME280_pressure;Samples;Min_cycle;Max_cycle;Signal;HPM_P1;HPM_P2
2023/11/16 00:00:12;;;;;;;6.30;3.17;;;11.20;99.90;;;;;;5060874;28;20523;-73
2023/11/16 00:02:38;;;;;;;17.37;4.27;;;11.20;99.90;;;;;;5054442;28;20865;-71
2023/11/16 00:05:04;;;;;;;13.93;3.83;;;11.30;99.90;;;;;;5058483;28;21250;-71
2023/11/16 00:07:33;;;;;;;10.80;4.27;;;11.40;99.90;;;;;;5058563;28;20416;-71
2023/11/16 00:09:59;;;;;;;9.63;3.40;;;11.30;99.90;;;;;;5058131;28;20855;-71
2023/11/16 00:12:24;;;;;;;17.23;3.77;;;11.40;99.90;;;;;;5058511;28;20513;-72
2023/11/16 00:14:50;;;;;;;9.40;3.63;;;11.30;99.90;;;;;;5054460;28;20187;-71
2023/11/16 00:17:15;;;;;;;12.67;4.23;;;11.20;99.90;;;;;;5059047;28;20197;-72
2023/11/16 00:19:42;;;;;;;5.30;4.17;;;11.30;99.90;;;;;;5057244;28;20270;-71
2023/11/16 00:22:09;;;;;;;10.10;3.57;;;11.30;99.90;;;;;;5056206;28;20198;-71
2023/11/16 00:24:35;;;;;;;5.23;2.63;;;11.30;99.90;;;;;;5060774;28;20444;-71
2023/11/16 00:27:00;;;;;;;3.93;2.20;;;11.20;99.90;;;;;;5061691;28;20422;-72
2023/11/16 00:29:26;;;;;;;3.57;1.67;;;11.10;99.90;;;;;;5060382;28;20182;-71
2023/11/16 00:31:52;;;;;;;5.60;1.90;;;11.10;99.90;;;;;;5059709;28;20183;-71
2023/11/16 00:34:17;;;;;;;5.47;2.10;;;11.20;99.90;;;;;;5058961;28;20206;-71
2023/11/16 00:36:43;;;;;;;5.13;2.27;;;11.20;99.90;;;;;;5055158;28;20294;-72
2023/11/16 00:39:09;;;;;;;3.30;2.30;;;11.30;99.90;;;;;;5056649;28;20181;-71
2023/11/16 00:41:35;;;;;;;6.03;1.77;;;11.30;99.90;;;;;;5055310;28;20218;-73
2023/11/16 00:44:05;;;;;;;7.03;2.70;;;11.10;99.90;;;;;;5060810;28;20433;-72
2023/11/16 00:46:32;;;;;;;3.10;1.73;;;11.20;99.90;;;;;;5058862;28;20174;-72
2023/11/16 00:48:58;;;;;;;4.43;2.30;;;11.10;99.90;;;;;;5062727;28;20442;-71
2023/11/16 00:51:24;;;;;;;4.27;1.60;;;11.00;99.90;;;;;;5057984;28;20480;-71
2023/11/16 00:53:49;;;;;;;5.43;1.63;;;10.90;99.90;;;;;;5056385;28;20520;-72
2023/11/16 00:56:16;;;;;;;4.57;1.70;;;10.90;99.90;;;;;;5058937;28;20183;-71
2023/11/16 00:58:44;;;;;;;4.33;2.00;;;10.80;99.90;;;;;;5056347;28;20182;-71
2023/11/16 01:01:15;;;;;;;3.67;2.20;;;10.80;99.90;;;;;;5056620;28;20464;-72
2023/11/16 01:03:41;;;;;;;2.90;1.70;;;10.90;99.90;;;;;;5059329;28;20437;-71
2023/11/16 01:06:08;;;;;;;4.80;1.80;;;10.90;99.90;;;;;;5060416;28;20418;-71
2023/11/16 01:08:36;;;;;;;4.10;2.27;;;10.90;99.90;;;;;;5059441;28;20444;-71
2023/11/16 01:11:03;;;;;;;5.70;2.20;;;10.90;99.90;;;;;;5055553;28;20421;-71
2023/11/16 01:13:38;;;;;;;3.33;1.70;;;10.90;99.90;;;;;;5054665;28;20570;-72
2023/11/16 01:16:14;;;;;;;6.43;1.93;;;10.80;99.90;;;;;;5057730;28;20886;-71
2023/11/16 01:18:46;;;;;;;4.80;2.23;;;10.80;99.90;;;;;;5058847;28;20486;-71
2023/11/16 01:21:15;;;;;;;5.93;2.30;;;10.80;99.90;;;;;;5056398;28;20473;-71
2023/11/16 01:23:41;;;;;;;5.80;3.00;;;10.80;99.90;;;;;;5059954;28;20429;-71
2023/11/16 01:26:16;;;;;;;6.90;2.63;;;10.80;99.90;;;;;;5057155;28;20417;-71
2023/11/16 01:28:58;;;;;;;5.20;2.93;;;10.80;99.90;;;;;;5055681;28;20837;-72
2023/11/16 01:31:24;;;;;;;3.70;2.80;;;10.90;99.90;;;;;;5058383;28;20417;-72
2023/11/16 01:33:50;;;;;;;6.13;3.10;;;10.90;99.90;;;;;;5058009;28;20474;-71
2023/11/16 01:36:16;;;;;;;5.30;2.83;;;10.80;99.90;;;;;;5057124;28;20492;-71
2023/11/16 01:38:42;;;;;;;8.20;3.20;;;10.80;99.90;;;;;;5056008;28;20517;-71
2023/11/16 01:41:09;;;;;;;6.30;3.30;;;10.80;99.90;;;;;;5057175;28;20468;-71
2023/11/16 01:43:36;;;;;;;5.77;3.33;;;10.70;99.90;;;;;;5056063;28;20434;-70
2023/11/16 01:46:05;;;;;;;7.60;3.30;;;10.70;99.90;;;;;;5059681;28;20441;-71
2023/11/16 01:48:36;;;;;;;10.10;3.17;;;10.80;99.90;;;;;;5057815;28;20463;-71
2023/11/16 01:51:05;;;;;;;10.63;3.77;;;10.90;99.90;;;;;;5058426;28;20556;-71
2023/11/16 01:53:34;;;;;;;6.67;3.93;;;10.90;99.90;;;;;;5050779;28;20479;-71
2023/11/16 01:56:01;;;;;;;4.50;2.73;;;10.90;99.90;;;;;;5062077;28;20440;-72
2023/11/16 01:58:27;;;;;;;9.70;3.10;;;10.90;99.90;;;;;;5057475;28;20433;-72
2023/11/16 02:00:53;;;;;;;12.03;3.70;;;10.90;99.90;;;;;;5058861;28;20457;-73
2023/11/16 02:03:19;;;;;;;7.80;4.27;;;11.00;99.90;;;;;;5063196;28;20453;-71
2023/11/16 02:05:45;;;;;;;12.60;3.10;;;11.00;99.90;;;;;;5060514;28;20417;-71
2023/11/16 02:08:11;;;;;;;15.57;3.60;;;10.90;99.90;;;;;;5062746;28;20681;-71
2023/11/16 02:10:38;;;;;;;6.03;2.87;;;10.90;99.90;;;;;;5059013;28;20433;-72
2023/11/16 02:13:14;;;;;;;6.63;3.40;;;10.90;99.90;;;;;;5060220;28;20864;-71
2023/11/16 02:15:43;;;;;;;9.20;3.10;;;11.00;99.90;;;;;;5061681;28;20412;-72
2023/11/16 02:18:09;;;;;;;7.53;3.93;;;11.00;99.90;;;;;;5061617;28;20421;-72
2023/11/16 02:20:34;;;;;;;5.53;3.00;;;10.90;99.90;;;;;;5058710;28;20465;-72
2023/11/16 02:23:03;;;;;;;6.43;3.10;;;10.90;99.90;;;;;;5059570;28;20548;-73
2023/11/16 02:25:29;;;;;;;5.23;3.07;;;10.90;99.90;;;;;;5059953;28;20595;-73
2023/11/16 02:27:55;;;;;;;6.30;3.00;;;10.80;99.90;;;;;;5061741;28;20433;-72
2023/11/16 02:30:26;;;;;;;9.13;3.60;;;10.80;99.90;;;;;;5062985;28;21048;-71
2023/11/16 02:32:51;;;;;;;11.00;3.60;;;10.80;99.90;;;;;;5062536;28;20469;-72
2023/11/16 02:35:17;;;;;;;15.00;3.17;;;10.90;99.90;;;;;;5059829;28;20241;-72
2023/11/16 02:37:43;;;;;;;11.83;3.13;;;10.90;99.90;;;;;;5063266;28;20248;-71
2023/11/16 02:40:10;;;;;;;5.70;2.87;;;10.80;99.90;;;;;;5064527;28;20183;-71
2023/11/16 02:42:35;;;;;;;9.03;3.53;;;10.80;99.90;;;;;;5063532;28;20559;-72
2023/11/16 02:45:01;;;;;;;7.47;3.00;;;10.80;99.90;;;;;;5062287;28;20422;-71
2023/11/16 02:47:30;;;;;;;9.53;3.43;;;10.90;99.90;;;;;;5060873;28;20183;-71
2023/11/16 02:49:56;;;;;;;11.70;3.23;;;10.80;99.90;;;;;;5061758;28;20181;-71
2023/11/16 02:52:22;;;;;;;9.60;3.67;;;10.80;99.90;;;;;;5059879;28;20430;-72
2023/11/16 02:54:48;;;;;;;4.90;3.03;;;10.80;99.90;;;;;;5062646;28;20205;-71
2023/11/16 02:57:14;;;;;;;5.70;3.10;;;10.70;99.90;;;;;;5061950;28;20413;-71
2023/11/16 02:59:41;;;;;;;8.93;4.27;;;10.70;99.90;;;;;;5060479;28;20528;-71
2023/11/16 03:02:07;;;;;;;7.33;3.37;;;10.70;99.90;;;;;;5057143;28;20564;-71
2023/11/16 03:04:33;;;;;;;6.43;3.80;;;10.70;99.90;;;;;;5063864;28;20740;-71
2023/11/16 03:06:59;;;;;;;8.10;3.30;;;10.70;99.90;;;;;;5059014;28;20187;-71
2023/11/16 03:09:24;;;;;;;9.20;3.33;;;10.70;99.90;;;;;;5060462;28;20795;-71
2023/11/16 03:11:50;;;;;;;12.57;3.97;;;10.70;99.90;;;;;;5062402;28;20648;-72
2023/11/16 03:14:15;;;;;;;8.53;3.57;;;10.70;99.90;;;;;;5061558;28;20256;-72
2023/11/16 03:16:51;;;;;;;7.40;3.90;;;10.60;99.90;;;;;;5061289;28;20253;-72
2023/11/16 03:19:17;;;;;;;9.20;4.10;;;10.70;99.90;;;;;;5059947;28;20187;-72
2023/11/16 03:21:43;;;;;;;9.30;5.97;;;10.60;99.90;;;;;;5063386;28;20526;-72
2023/11/16 03:24:09;;;;;;;7.83;3.67;;;10.70;99.90;;;;;;5059936;28;20634;-71
2023/11/16 03:26:35;;;;;;;7.23;4.00;;;10.70;99.90;;;;;;5061434;28;20199;-71
2023/11/16 03:29:01;;;;;;;8.40;3.60;;;10.80;99.90;;;;;;5060501;28;20444;-72
2023/11/16 03:31:26;;;;;;;8.17;3.10;;;10.70;99.90;;;;;;5060740;28;20195;-72
2023/11/16 03:33:52;;;;;;;6.93;3.30;;;10.70;99.90;;;;;;5057701;28;20208;-72
2023/11/16 03:36:17;;;;;;;6.90;3.43;;;10.60;99.90;;;;;;5057332;28;20187;-71
2023/11/16 03:38:46;;;;;;;8.97;3.40;;;10.60;99.90;;;;;;5059582;28;20199;-72
2023/11/16 03:41:12;;;;;;;11.17;3.47;;;10.60;99.90;;;;;;5061273;28;20346;-72
2023/11/16 03:43:38;;;;;;;7.33;4.07;;;10.60;99.90;;;;;;5059444;28;22125;-72
2023/11/16 03:46:08;;;;;;;11.53;3.43;;;10.50;99.90;;;;;;5059006;28;20834;-72
2023/11/16 03:48:33;;;;;;;7.00;3.40;;;10.50;99.90;;;;;;5056821;28;20904;-72
2023/11/16 03:50:59;;;;;;;10.47;4.17;;;10.40;99.90;;;;;;5059421;28;20467;-72
2023/11/16 03:53:24;;;;;;;5.90;3.60;;;10.40;99.90;;;;;;5061865;28;20223;-72
2023/11/16 03:55:51;;;;;;;6.90;3.83;;;10.40;99.90;;;;;;5058848;28;20194;-72
2023/11/16 03:58:16;;;;;;;8.63;3.77;;;10.40;99.90;;;;;;5063429;28;20171;-71
2023/11/16 04:00:42;;;;;;;6.97;3.30;;;10.40;99.90;;;;;;5059603;28;20514;-72
2023/11/16 04:03:08;;;;;;;9.43;3.27;;;10.40;99.90;;;;;;5062355;28;20187;-72
2023/11/16 04:05:33;;;;;;;7.73;3.80;;;10.40;99.90;;;;;;5059596;28;20209;-71
2023/11/16 04:07:59;;;;;;;4.07;3.40;;;10.40;99.90;;;;;;5061083;28;20187;-71
2023/11/16 04:10:24;;;;;;;12.57;3.30;;;10.40;99.90;;;;;;5061633;28;20183;-71
2023/11/16 04:12:50;;;;;;;7.97;3.67;;;10.50;99.90;;;;;;5060239;28;20210;-72
2023/11/16 04:15:16;;;;;;;5.83;3.70;;;10.50;99.90;;;;;;5057828;28;20187;-72
2023/11/16 04:17:44;;;;;;;7.97;4.53;;;10.50;99.90;;;;;;5061779;28;20187;-71
2023/11/16 04:20:11;;;;;;;10.77;4.20;;;10.50;99.90;;;;;;5060778;28;20187;-71
2023/11/16 04:22:39;;;;;;;9.80;3.47;;;10.50;99.90;;;;;;5056061;28;20995;-71
2023/11/16 04:25:18;;;;;;;4.80;4.17;;;10.50;99.90;;;;;;5060315;28;20495;-72
2023/11/16 04:27:45;;;;;;;12.60;4.53;;;10.50;99.90;;;;;;5059773;28;20439;-72
2023/11/16 04:30:13;;;;;;;10.03;4.60;;;10.50;99.90;;;;;;5059730;28;20429;-71
2023/11/16 04:32:42;;;;;;;11.73;4.40;;;10.50;99.90;;;;;;5059573;28;20976;-72
2023/11/16 04:35:09;;;;;;;7.50;3.43;;;10.50;99.90;;;;;;5060255;28;20411;-72
2023/11/16 04:37:37;;;;;;;11.73;4.70;;;10.50;99.90;;;;;;5060377;28;21102;-72
2023/11/16 04:40:06;;;;;;;7.80;4.03;;;10.40;99.90;;;;;;5056320;28;20429;-72
2023/11/16 04:42:33;;;;;;;7.77;4.17;;;10.40;99.90;;;;;;5059604;28;21250;-72
2023/11/16 04:44:58;;;;;;;7.63;3.30;;;10.40;99.90;;;;;;5050070;28;20425;-72
2023/11/16 04:47:24;;;;;;;6.90;3.90;;;10.50;99.90;;;;;;5063387;28;20546;-72
2023/11/16 04:49:50;;;;;;;8.40;3.60;;;10.50;99.90;;;;;;5059775;28;20218;-72
2023/11/16 04:52:16;;;;;;;11.27;3.80;;;10.50;99.90;;;;;;5062173;28;20571;-72
2023/11/16 04:54:41;;;;;;;14.17;4.40;;;10.50;99.90;;;;;;5061952;28;20183;-72
2023/11/16 04:57:07;;;;;;;8.73;3.63;;;10.50;99.90;;;;;;5060670;28;20661;-72
2023/11/16 04:59:33;;;;;;;6.60;4.00;;;10.50;99.90;;;;;;5058756;28;20175;-72
2023/11/16 05:01:58;;;;;;;11.37;4.23;;;10.50;99.90;;;;;;5058194;28;20215;-72
2023/11/16 05:04:24;;;;;;;10.03;4.17;;;10.60;99.90;;;;;;5060539;28;20202;-72
2023/11/16 05:06:50;;;;;;;10.20;3.43;;;10.60;99.90;;;;;;5058215;28;20182;-72
2023/11/16 05:09:15;;;;;;;8.30;3.77;;;10.50;99.90;;;;;;5056963;28;20325;-72
2023/11/16 05:11:41;;;;;;;10.70;4.10;;;10.50;99.90;;;;;;5054658;28;20500;-72
2023/11/16 05:14:06;;;;;;;9.40;4.00;;;10.50;99.90;;;;;;5061024;28;20203;-72
2023/11/16 05:16:32;;;;;;;7.20;4.03;;;10.50;99.90;;;;;;5062532;28;20213;-72
2023/11/16 05:18:58;;;;;;;9.97;3.53;;;10.50;99.90;;;;;;5060914;28;20550;-72
2023/11/16 05:21:23;;;;;;;6.03;3.83;;;10.50;99.90;;;;;;5061880;28;20203;-72
2023/11/16 05:23:49;;;;;;;6.03;3.67;;;10.60;99.90;;;;;;5059315;28;20951;-72
2023/11/16 05:26:16;;;;;;;5.20;3.53;;;10.50;99.90;;;;;;5059852;28;20274;-72
2023/11/16 05:28:42;;;;;;;6.53;3.77;;;10.50;99.90;;;;;;5059270;28;20184;-72
2023/11/16 05:31:09;;;;;;;7.17;4.33;;;10.50;99.90;;;;;;5059160;28;20441;-71
2023/11/16 05:33:34;;;;;;;9.83;3.40;;;10.40;99.90;;;;;;5058185;28;20491;-71
2023/11/16 05:36:00;;;;;;;7.63;4.00;;;10.40;99.90;;;;;;5059967;28;20418;-71
2023/11/16 05:38:26;;;;;;;8.57;3.63;;;10.40;99.90;;;;;;5061060;28;20604;-72
2023/11/16 05:40:52;;;;;;;13.43;3.97;;;10.40;99.90;;;;;;5055885;28;20517;-71
2023/11/16 05:43:18;;;;;;;9.33;3.30;;;10.40;99.90;;;;;;5060443;28;20199;-71
2023/11/16 05:45:44;;;;;;;16.23;4.47;;;10.40;99.90;;;;;;5062574;28;20199;-72
2023/11/16 05:48:10;;;;;;;9.97;3.87;;;10.40;99.90;;;;;;5058214;28;20951;-71
2023/11/16 05:50:36;;;;;;;14.07;4.30;;;10.30;99.90;;;;;;5059035;28;20589;-71
2023/11/16 05:53:02;;;;;;;10.03;4.03;;;10.30;99.90;;;;;;5059127;28;20788;-72
2023/11/16 05:55:31;;;;;;;9.37;3.57;;;10.30;99.90;;;;;;5061750;28;20428;-73
2023/11/16 05:57:57;;;;;;;15.47;4.20;;;10.30;99.90;;;;;;5060010;28;20478;-72
2023/11/16 06:00:23;;;;;;;9.70;4.20;;;10.30;99.90;;;;;;5058554;28;20970;-72
2023/11/16 06:02:49;;;;;;;8.00;3.70;;;10.30;99.90;;;;;;5058039;28;20195;-72
2023/11/16 06:05:14;;;;;;;9.23;4.10;;;10.30;99.90;;;;;;5056561;28;20572;-73
2023/11/16 06:07:40;;;;;;;10.10;4.23;;;10.40;99.90;;;;;;5060396;28;20180;-73
2023/11/16 06:10:06;;;;;;;10.30;4.63;;;10.40;99.90;;;;;;5061517;28;20187;-73
2023/11/16 06:12:33;;;;;;;8.47;4.00;;;10.40;99.90;;;;;;5062365;28;20464;-73
2023/11/16 06:15:00;;;;;;;5.60;3.70;;;10.40;99.90;;;;;;5059298;28;20444;-73
2023/11/16 06:17:26;;;;;;;7.70;4.63;;;10.40;99.90;;;;;;5060392;28;20812;-72
2023/11/16 06:19:52;;;;;;;10.93;4.17;;;10.40;99.90;;;;;;5057039;28;20433;-73
2023/11/16 06:22:17;;;;;;;6.20;3.73;;;10.40;99.90;;;;;;5057552;28;20218;-73
2023/11/16 06:24:43;;;;;;;11.30;4.37;;;10.40;99.90;;;;;;5061185;28;20180;-73
2023/11/16 06:27:09;;;;;;;12.63;6.13;;;10.40;99.90;;;;;;5061280;28;20191;-73
2023/11/16 06:29:35;;;;;;;7.03;3.60;;;10.40;99.90;;;;;;5060551;28;20183;-73
2023/11/16 06:32:05;;;;;;;7.97;4.30;;;10.40;99.90;;;;;;5058726;28;20672;-73
2023/11/16 06:34:31;;;;;;;8.20;4.10;;;10.40;99.90;;;;;;5057529;28;20969;-73
2023/11/16 06:36:58;;;;;;;7.67;4.00;;;10.40;99.90;;;;;;5059179;28;20423;-73
2023/11/16 06:39:24;;;;;;;19.53;4.53;;;10.40;99.90;;;;;;5050835;28;20477;-73
2023/11/16 06:41:49;;;;;;;13.40;4.67;;;10.40;99.90;;;;;;5059097;28;21214;-72
2023/11/16 06:44:18;;;;;;;12.97;4.00;;;10.40;99.90;;;;;;5059922;28;20445;-72
2023/11/16 06:46:45;;;;;;;10.00;4.33;;;10.40;99.90;;;;;;5052977;28;20219;-73
2023/11/16 06:49:11;;;;;;;14.23;4.20;;;10.40;99.90;;;;;;5056233;28;20801;-72
2023/11/16 06:51:36;;;;;;;7.57;4.40;;;10.40;99.90;;;;;;5059057;28;20438;-72
2023/11/16 06:54:05;;;;;;;16.60;5.10;;;10.50;99.90;;;;;;5061664;28;20254;-73
2023/11/16 06:56:33;;;;;;;6.10;3.90;;;10.50;99.90;;;;;;5061963;28;20644;-72
2023/11/16 06:59:03;;;;;;;9.00;4.13;;;10.50;99.90;;;;;;5064817;28;20421;-72
2023/11/16 07:01:32;;;;;;;17.10;4.30;;;10.50;99.90;;;;;;5059234;28;20804;-74
2023/11/16 07:03:57;;;;;;;9.07;4.13;;;10.50;99.90;;;;;;5064003;28;20487;-72
2023/11/16 07:06:23;;;;;;;8.40;3.93;;;10.60;99.90;;;;;;5066164;28;20405;-72
2023/11/16 07:08:50;;;;;;;10.63;4.50;;;10.60;99.90;;;;;;5063290;28;20696;-72
2023/11/16 07:11:15;;;;;;;8.00;3.50;;;10.60;99.90;;;;;;5063504;28;20217;-72
2023/11/16 07:13:41;;;;;;;18.13;4.27;;;10.60;99.90;;;;;;5060476;28;20748;-72
2023/11/16 07:16:08;;;;;;;9.13;4.10;;;10.60;99.90;;;;;;5063847;28;20184;-71
2023/11/16 07:18:34;;;;;;;6.40;3.43;;;10.50;99.90;;;;;;5061895;28;20598;-71
2023/11/16 07:21:04;;;;;;;9.37;4.37;;;10.60;99.90;;;;;;5059468;28;20499;-71
2023/11/16 07:23:30;;;;;;;5.90;3.70;;;10.70;99.90;;;;;;5061137;28;20914;-72
2023/11/16 07:25:57;;;;;;;7.77;4.33;;;10.60;99.90;;;;;;5058263;28;20425;-72
2023/11/16 07:28:25;;;;;;;11.13;4.00;;;10.60;99.90;;;;;;5060834;28;20215;-73
2023/11/16 07:30:52;;;;;;;7.60;3.80;;;10.60;99.90;;;;;;5062434;28;20851;-72
2023/11/16 07:33:18;;;;;;;7.83;2.97;;;10.70;99.90;;;;;;5060767;28;20467;-72
2023/11/16 07:35:47;;;;;;;10.83;4.57;;;10.70;99.90;;;;;;5063440;28;21109;-71
2023/11/16 07:38:13;;;;;;;6.23;4.00;;;10.70;99.90;;;;;;5059766;28;20653;-72
2023/11/16 07:40:39;;;;;;;6.90;3.83;;;10.80;99.90;;;;;;5049656;28;20583;-72
2023/11/16 07:43:05;;;;;;;9.73;3.93;;;10.80;99.90;;;;;;5051005;28;20533;-72
2023/11/16 07:45:31;;;;;;;9.97;4.83;;;10.80;99.90;;;;;;5055997;28;20604;-73
2023/11/16 07:48:02;;;;;;;12.60;4.07;;;10.80;99.90;;;;;;5056379;28;20902;-72
2023/11/16 07:50:31;;;;;;;12.67;3.90;;;10.80;99.90;;;;;;5054508;28;20437;-73
2023/11/16 07:52:59;;;;;;;5.50;3.40;;;10.90;99.90;;;;;;5055937;28;20475;-72
2023/11/16 07:55:25;;;;;;;7.50;3.83;;;10.90;99.90;;;;;;5056708;28;20442;-71
2023/11/16 07:57:53;;;;;;;8.33;3.83;;;11.00;99.90;;;;;;5059840;28;20532;-71
2023/11/16 08:00:30;;;;;;;10.40;3.30;;;11.10;99.90;;;;;;5052629;28;20560;-71
2023/11/16 08:05:48;;;;;;;6.77;3.40;;;11.00;99.90;;;;;;5032590;28;20442;-71
2023/11/16 08:08:15;;;;;;;11.10;3.43;;;11.10;99.90;;;;;;5056478;28;20947;-71
2023/11/16 08:10:42;;;;;;;10.90;3.40;;;11.10;99.90;;;;;;5048116;28;20218;-71
2023/11/16 08:13:09;;;;;;;12.03;3.90;;;11.20;99.90;;;;;;5047078;28;20495;-72
2023/11/16 08:15:35;;;;;;;8.93;3.13;;;11.20;99.90;;;;;;5047989;28;20444;-72
2023/11/16 08:18:01;;;;;;;6.37;2.93;;;11.20;99.90;;;;;;5054710;28;20425;-70
2023/11/16 08:20:28;;;;;;;7.20;3.50;;;11.20;99.90;;;;;;5059530;28;20658;-70
2023/11/16 08:22:56;;;;;;;9.23;5.13;;;11.10;99.90;;;;;;5058413;28;20211;-69
2023/11/16 08:25:23;;;;;;;9.33;3.40;;;11.20;99.90;;;;;;5051332;28;20437;-70
2023/11/16 08:27:50;;;;;;;6.90;3.20;;;11.30;99.90;;;;;;5048262;28;20861;-70
2023/11/16 08:30:18;;;;;;;12.80;3.63;;;11.40;99.90;;;;;;5049649;28;20528;-70
2023/11/16 08:32:45;;;;;;;7.87;3.70;;;11.40;99.90;;;;;;5056126;28;20503;-70
2023/11/16 08:35:23;;;;;;;12.50;3.77;;;11.40;99.90;;;;;;5050376;28;20437;-70
2023/11/16 08:37:49;;;;;;;7.80;3.47;;;11.50;99.90;;;;;;5055145;28;20459;-69
2023/11/16 08:40:23;;;;;;;5.43;3.00;;;11.40;99.90;;;;;;5057134;28;20422;-69
2023/11/16 08:42:50;;;;;;;10.40;4.00;;;11.50;99.90;;;;;;5052942;28;20464;-70
2023/11/16 08:45:20;;;;;;;7.10;3.00;;;11.60;99.90;;;;;;5055977;28;20425;-70
2023/11/16 08:47:47;;;;;;;10.40;3.83;;;11.60;99.90;;;;;;5055982;28;20421;-69
2023/11/16 08:50:13;;;;;;;10.07;4.07;;;11.70;99.90;;;;;;5053774;28;20481;-70
2023/11/16 08:52:42;;;;;;;8.03;3.70;;;11.80;99.90;;;;;;5055047;28;20453;-71
2023/11/16 08:55:11;;;;;;;8.33;3.93;;;11.80;99.90;;;;;;5055511;28;20425;-71
2023/11/16 08:57:39;;;;;;;6.93;3.27;;;11.90;99.90;;;;;;5056407;28;20437;-71
2023/11/16 09:02:51;;;;;;;6.93;2.63;;;11.90;99.90;;;;;;5057015;28;20518;-71
2023/11/16 09:05:18;;;;;;;7.60;3.60;;;12.00;99.90;;;;;;5050010;28;21218;-71
2023/11/16 09:07:44;;;;;;;8.57;4.40;;;12.10;99.90;;;;;;5048919;28;20825;-70
2023/11/16 09:10:13;;;;;;;6.73;3.67;;;12.20;99.90;;;;;;5053393;28;20459;-72
2023/11/16 09:12:41;;;;;;;9.90;3.63;;;12.20;99.90;;;;;;5051249;28;20202;-70
2023/11/16 09:15:10;;;;;;;13.40;4.37;;;12.20;99.90;;;;;;5057470;28;20523;-72
2023/11/16 09:17:38;;;;;;;9.33;3.47;;;12.10;99.90;;;;;;5057762;28;20495;-71
2023/11/16 09:20:10;;;;;;;12.20;4.10;;;12.20;99.90;;;;;;5055346;28;20500;-70
2023/11/16 09:22:39;;;;;;;11.50;4.47;;;12.20;99.90;;;;;;5056039;28;20548;-70
2023/11/16 09:25:15;;;;;;;5.77;3.40;;;12.20;99.90;;;;;;5055295;28;20475;-70
2023/11/16 09:27:42;;;;;;;10.80;3.87;;;12.20;99.90;;;;;;5053812;28;20432;-70
2023/11/16 09:30:14;;;;;;;9.47;4.17;;;12.20;99.90;;;;;;5052633;28;20429;-70
2023/11/16 09:32:43;;;;;;;11.27;4.00;;;12.20;99.90;;;;;;5053397;28;20495;-70
2023/11/16 09:35:14;;;;;;;19.90;4.10;;;12.20;99.90;;;;;;5052485;28;20440;-72
2023/11/16 09:37:45;;;;;;;10.80;3.57;;;12.20;99.90;;;;;;5049159;28;20488;-71
2023/11/16 09:40:19;;;;;;;6.80;3.53;;;12.30;99.90;;;;;;5056357;28;20429;-71
2023/11/16 09:42:48;;;;;;;13.23;4.23;;;12.30;99.90;;;;;;5055106;28;20448;-71
2023/11/16 09:45:16;;;;;;;11.23;4.70;;;12.30;99.90;;;;;;5045858;28;20426;-73
2023/11/16 09:47:48;;;;;;;5.30;3.37;;;12.30;99.90;;;;;;5050186;28;20452;-72
2023/11/16 09:50:14;;;;;;;5.10;3.20;;;12.30;99.90;;;;;;5052915;28;20487;-72
2023/11/16 09:52:41;;;;;;;10.50;3.40;;;12.30;99.90;;;;;;5053935;28;20548;-72
2023/11/16 09:55:13;;;;;;;12.37;4.73;;;12.30;99.90;;;;;;5055295;28;20477;-72
2023/11/16 09:57:41;;;;;;;6.87;4.50;;;12.30;99.90;;;;;;5050231;28;20951;-72
2023/11/16 10:00:18;;;;;;;11.80;5.53;;;12.30;99.90;;;;;;5055453;28;20434;-71
2023/11/16 10:02:49;;;;;;;8.23;4.20;;;12.30;99.90;;;;;;5052882;28;20460;-72
2023/11/16 10:05:30;;;;;;;10.20;4.57;;;12.30;99.90;;;;;;5051905;28;20483;-73
2023/11/16 10:08:01;;;;;;;12.73;4.30;;;12.30;99.90;;;;;;5051820;28;20457;-72
2023/11/16 10:10:29;;;;;;;12.53;4.60;;;12.30;99.90;;;;;;5053067;28;20430;-73
2023/11/16 10:12:56;;;;;;;7.40;3.70;;;12.30;99.90;;;;;;5051982;28;20691;-74
2023/11/16 10:15:23;;;;;;;7.83;3.33;;;12.30;99.90;;;;;;5054706;28;20459;-72
2023/11/16 10:17:49;;;;;;;6.33;3.53;;;12.40;99.90;;;;;;5050641;28;20444;-71
2023/11/16 10:20:20;;;;;;;10.30;4.07;;;12.40;99.90;;;;;;5052646;28;20433;-72
2023/11/16 10:22:47;;;;;;;5.53;3.50;;;12.40;99.90;;;;;;5068271;28;20473;-72
2023/11/16 10:25:14;;;;;;;6.57;3.67;;;12.30;99.90;;;;;;5055504;28;21006;-72
2023/11/16 10:27:43;;;;;;;11.83;3.73;;;12.30;99.90;;;;;;5056905;28;20610;-72
2023/11/16 10:30:16;;;;;;;11.73;4.03;;;12.30;99.90;;;;;;5055789;28;20579;-72
2023/11/16 10:32:42;;;;;;;5.07;3.60;;;12.30;99.90;;;;;;5055216;28;20499;-73
2023/11/16 10:35:17;;;;;;;5.40;3.70;;;12.30;99.90;;;;;;5057900;28;20863;-71
2023/11/16 10:37:44;;;;;;;6.10;3.60;;;12.30;99.90;;;;;;5057575;28;20425;-72
2023/11/16 10:40:11;;;;;;;6.40;3.50;;;12.30;99.90;;;;;;5053603;28;20523;-72
2023/11/16 10:42:41;;;;;;;5.97;3.70;;;12.40;99.90;;;;;;5057831;28;20467;-73
2023/11/16 10:45:12;;;;;;;7.33;3.63;;;12.30;99.90;;;;;;5059132;28;20747;-72
2023/11/16 10:47:43;;;;;;;6.40;5.53;;;12.40;99.90;;;;;;5059463;28;20433;-71
2023/11/16 10:50:15;;;;;;;5.83;3.20;;;12.40;99.90;;;;;;5057792;28;20444;-72
2023/11/16 10:52:47;;;;;;;8.13;3.47;;;12.40;99.90;;;;;;5056896;28;20462;-72
2023/11/16 10:55:21;;;;;;;5.83;3.77;;;12.40;99.90;;;;;;5057749;28;20475;-71
2023/11/16 10:57:50;;;;;;;9.63;3.80;;;12.40;99.90;;;;;;5052547;28;20459;-71
2023/11/16 11:00:17;;;;;;;10.17;6.57;;;12.40;99.90;;;;;;5057298;28;20804;-72
2023/11/16 11:02:47;;;;;;;11.13;7.37;;;12.30;99.90;;;;;;5052270;28;20476;-71
2023/11/16 11:05:16;;;;;;;12.70;4.90;;;12.30;99.90;;;;;;5059169;28;20425;-75
2023/11/16 11:07:49;;;;;;;6.73;4.20;;;12.40;99.90;;;;;;5058455;28;20429;-70
2023/11/16 11:10:15;;;;;;;4.83;3.47;;;12.30;99.90;;;;;;5052789;28;20417;-72
2023/11/16 11:12:47;;;;;;;4.77;3.40;;;12.30;99.90;;;;;;5058264;28;20951;-70
2023/11/16 11:15:36;;;;;;;7.30;4.53;;;12.40;99.90;;;;;;5056993;28;20425;-71
2023/11/16 11:18:04;;;;;;;8.20;4.23;;;12.50;99.90;;;;;;5048203;28;20426;-72
2023/11/16 11:20:40;;;;;;;5.10;3.80;;;12.50;99.90;;;;;;5054799;28;20537;-71
2023/11/16 11:23:18;;;;;;;7.00;4.50;;;12.60;99.90;;;;;;5061152;28;20448;-72
2023/11/16 11:25:44;;;;;;;8.47;4.03;;;12.70;99.90;;;;;;5055667;28;20427;-72
2023/11/16 11:28:14;;;;;;;9.17;4.17;;;12.80;99.90;;;;;;5058701;28;20472;-72
2023/11/16 11:30:54;;;;;;;5.50;3.60;;;12.80;99.90;;;;;;5056524;28;20505;-68
2023/11/16 11:33:43;;;;;;;6.47;4.00;;;12.90;99.90;;;;;;5056036;28;20447;-72
2023/11/16 11:36:10;;;;;;;5.37;3.83;;;12.90;99.90;;;;;;5051390;28;20825;-70
2023/11/16 11:38:42;;;;;;;6.80;4.23;;;13.00;99.90;;;;;;5055231;28;20431;-68
2023/11/16 11:41:09;;;;;;;7.40;3.77;;;12.90;99.90;;;;;;5059629;28;20469;-70
2023/11/16 11:43:38;;;;;;;8.27;4.37;;;12.90;99.90;;;;;;5047041;28;20466;-70
2023/11/16 11:46:09;;;;;;;5.90;3.80;;;12.90;99.90;;;;;;5055783;28;21035;-70
2023/11/16 11:48:36;;;;;;;8.27;3.50;;;12.90;99.90;;;;;;5072182;28;20421;-70
2023/11/16 11:51:05;;;;;;;6.97;3.97;;;12.80;99.90;;;;;;5062858;28;20512;-70
2023/11/16 11:53:32;;;;;;;5.40;3.47;;;12.90;99.90;;;;;;5054511;28;20480;-70
2023/11/16 11:56:06;;;;;;;9.47;3.60;;;12.90;99.90;;;;;;5061274;28;20438;-70
2023/11/16 11:58:32;;;;;;;6.00;3.70;;;12.90;99.90;;;;;;5060902;28;20430;-70
2023/11/16 12:00:59;;;;;;;5.73;3.30;;;12.90;99.90;;;;;;5063444;28;20554;-70
2023/11/16 12:03:25;;;;;;;5.23;3.30;;;12.90;99.90;;;;;;5059195;28;20522;-70
2023/11/16 12:05:58;;;;;;;6.33;3.20;;;12.80;99.90;;;;;;5057576;28;20414;-70
2023/11/16 12:08:39;;;;;;;6.80;3.50;;;12.80;99.90;;;;;;5058229;28;20938;-70
2023/11/16 12:11:05;;;;;;;7.27;3.70;;;12.80;99.90;;;;;;5060699;28;20460;-70
2023/11/16 12:13:31;;;;;;;9.40;3.90;;;12.80;99.90;;;;;;5059075;28;20467;-70
2023/11/16 12:15:57;;;;;;;4.97;4.10;;;12.80;99.90;;;;;;5058156;28;21000;-70
2023/11/16 12:18:23;;;;;;;9.13;4.53;;;12.70;99.90;;;;;;5056638;28;20441;-70
2023/11/16 12:20:53;;;;;;;12.10;6.07;;;12.70;99.90;;;;;;5052813;28;20539;-70
2023/11/16 12:23:19;;;;;;;8.30;4.53;;;12.70;99.90;;;;;;5056349;28;20256;-70
2023/11/16 12:25:45;;;;;;;8.47;4.20;;;12.60;99.90;;;;;;5052633;28;20535;-70
2023/11/16 12:28:11;;;;;;;11.27;4.23;;;12.60;99.90;;;;;;5055261;28;20187;-70
2023/11/16 12:30:37;;;;;;;9.47;4.60;;;12.60;99.90;;;;;;5054528;28;20528;-69
2023/11/16 12:33:06;;;;;;;8.90;4.17;;;12.50;99.90;;;;;;5052082;28;20207;-70
2023/11/16 12:35:37;;;;;;;7.33;4.10;;;12.50;99.90;;;;;;5048937;28;20425;-70
2023/11/16 12:38:04;;;;;;;8.47;4.83;;;12.50;99.90;;;;;;5057890;28;20536;-70
2023/11/16 12:40:29;;;;;;;7.33;4.27;;;12.50;99.90;;;;;;5056644;28;20422;-70
2023/11/16 12:42:55;;;;;;;11.93;5.77;;;12.50;99.90;;;;;;5053296;28;20887;-70
2023/11/16 12:45:21;;;;;;;14.37;6.27;;;12.50;99.90;;;;;;5057536;28;20179;-71
2023/11/16 12:47:47;;;;;;;8.47;5.30;;;12.50;99.90;;;;;;5056133;28;20418;-70
2023/11/16 12:50:13;;;;;;;12.33;5.17;;;12.50;99.90;;;;;;5052099;28;20195;-69